createdAt,value
2023-02-24T00:00:37.378Z,14.60
2023-02-24T00:03:13.225Z,13.77
2023-02-24T00:05:42.066Z,15.38
2023-02-24T00:08:08.797Z,14.82
2023-02-24T00:10:40.139Z,14.85
2023-02-24T00:13:23.300Z,14.23
2023-02-24T00:16:04.389Z,15.35
2023-02-24T00:18:35.251Z,14.80
2023-02-24T00:21:12.101Z,14.38
2023-02-24T00:23:43.130Z,15.50
2023-02-24T00:26:20.147Z,15.60
2023-02-24T00:28:47.136Z,14.68
2023-02-24T00:31:24.763Z,14.52
2023-02-24T00:33:56.155Z,14.07
2023-02-24T00:36:26.439Z,15.15
2023-02-24T00:38:59.057Z,14.57
2023-02-24T00:41:36.568Z,15.43
2023-02-24T00:44:22.842Z,14.32
2023-02-24T00:46:59.392Z,15.77
2023-02-24T00:49:28.677Z,14.32
2023-02-24T00:52:25.936Z,15.40
2023-02-24T00:55:18.410Z,16.40
2023-02-24T00:57:45.128Z,15.15
2023-02-24T01:00:14.454Z,14.45
2023-02-24T01:02:46.512Z,14.40
2023-02-24T01:05:14.358Z,15.32
2023-02-24T01:07:41.083Z,15.48
2023-02-24T01:10:11.656Z,15.88
2023-02-24T01:12:50.028Z,15.52
2023-02-24T01:15:26.049Z,14.93
2023-02-24T01:18:17.962Z,15.43
2023-02-24T01:20:50.206Z,15.45
2023-02-24T01:23:17.180Z,15.50
2023-02-24T01:25:46.696Z,16.15
2023-02-24T01:28:21.947Z,16.98
2023-02-24T01:30:48.605Z,17.02
2023-02-24T01:33:15.281Z,15.65
2023-02-24T01:39:13.685Z,14.95
2023-02-24T01:41:53.112Z,15.77
2023-02-24T01:44:27.303Z,15.93
2023-02-24T01:46:56.087Z,16.38
2023-02-24T01:49:40.513Z,16.02
2023-02-24T01:52:49.214Z,16.92
2023-02-24T01:55:24.690Z,15.95
2023-02-24T01:57:55.541Z,16.08
2023-02-24T02:00:48.404Z,15.75
2023-02-24T02:03:35.275Z,16.30
2023-02-24T02:06:10.743Z,18.35
2023-02-24T02:08:41.518Z,16.67
2023-02-24T02:11:13.435Z,17.17
2023-02-24T02:13:45.414Z,17.20
2023-02-24T02:16:25.098Z,17.42
2023-02-24T02:22:58.327Z,16.17
2023-02-24T02:25:31.070Z,17.65
2023-02-24T02:28:39.050Z,17.42
2023-02-24T02:31:12.480Z,18.80
2023-02-24T02:33:57.024Z,17.08
2023-02-24T02:36:48.757Z,16.70
2023-02-24T02:39:59.557Z,16.23
2023-02-24T02:42:53.341Z,16.42
2023-02-24T02:45:46.797Z,18.65
2023-02-24T02:48:41.561Z,16.55
2023-02-24T02:51:16.762Z,18.13
2023-02-24T02:54:17.285Z,17.88
2023-02-24T02:56:58.545Z,17.03
2023-02-24T02:59:30.503Z,18.45
2023-02-24T03:02:16.956Z,20.75
2023-02-24T03:04:54.067Z,18.45
2023-02-24T03:07:40.506Z,18.17
2023-02-24T03:10:17.120Z,20.42
2023-02-24T03:12:55.891Z,19.33
2023-02-24T03:15:33.515Z,19.65
2023-02-24T03:18:10.654Z,20.17
2023-02-24T03:21:14.622Z,19.13
2023-02-24T03:27:23.389Z,19.95
2023-02-24T03:30:03.328Z,20.75
2023-02-24T03:33:05.678Z,20.67
2023-02-24T03:35:38.463Z,19.45
2023-02-24T03:38:12.574Z,19.75
2023-02-24T03:40:42.574Z,21.20
2023-02-24T03:43:32.506Z,22.35
2023-02-24T03:46:01.758Z,20.05
2023-02-24T03:48:34.220Z,21.30
2023-02-24T03:51:03.380Z,20.77
2023-02-24T03:54:15.410Z,21.38
2023-02-24T03:57:17.197Z,21.98
2023-02-24T03:59:52.231Z,22.23
2023-02-24T04:02:21.647Z,22.42
2023-02-24T04:04:53.870Z,23.50
2023-02-24T04:08:09.440Z,23.75
2023-02-24T04:10:41.972Z,23.30
2023-02-24T04:16:49.429Z,21.33
2023-02-24T04:19:26.917Z,22.38
2023-02-24T04:22:00.724Z,22.52
2023-02-24T04:24:33.002Z,21.75
2023-02-24T04:27:09.371Z,20.55
2023-02-24T04:29:52.601Z,21.17
2023-02-24T04:32:24.628Z,21.67
2023-02-24T04:34:51.936Z,21.27
2023-02-24T04:37:33.121Z,25.17
2023-02-24T04:40:15.766Z,20.05
2023-02-24T04:42:48.880Z,26.33
2023-02-24T04:45:27.534Z,26.25
2023-02-24T04:48:01.334Z,23.70
2023-02-24T04:50:43.400Z,23.38
2023-02-24T04:53:15.858Z,21.77
2023-02-24T04:58:48.733Z,22.88
2023-02-24T05:01:40.793Z,21.33
2023-02-24T05:04:21.759Z,23.70
2023-02-24T05:06:56.743Z,21.75
2023-02-24T05:09:48.497Z,20.75
2023-02-24T05:18:23.224Z,21.13
2023-02-24T05:22:03.290Z,22.90
2023-02-24T05:25:08.546Z,21.77
2023-02-24T05:27:38.411Z,21.50
2023-02-24T05:30:26.872Z,21.65
2023-02-24T05:32:58.781Z,22.48
2023-02-24T05:35:38.096Z,23.35
2023-02-24T05:38:07.520Z,29.48
2023-02-24T05:40:55.625Z,30.70
2023-02-24T05:43:25.539Z,24.42
2023-02-24T05:45:52.236Z,23.00
2023-02-24T05:51:11.833Z,22.08
2023-02-24T05:53:45.308Z,23.10
2023-02-24T05:56:18.330Z,22.25
2023-02-24T05:58:49.567Z,21.10
2023-02-24T06:01:19.738Z,22.63
2023-02-24T06:03:53.756Z,22.23
2023-02-24T06:06:23.577Z,20.65
2023-02-24T06:16:10.149Z,22.75
2023-02-24T06:22:22.160Z,18.58
2023-02-24T06:24:58.202Z,20.45
2023-02-24T06:27:26.313Z,21.05
2023-02-24T06:30:03.628Z,22.23
2023-02-24T06:32:30.512Z,21.33
2023-02-24T06:34:58.632Z,19.77
2023-02-24T06:37:29.246Z,20.27
2023-02-24T06:39:59.956Z,21.08
2023-02-24T06:42:26.996Z,20.92
2023-02-24T06:45:02.037Z,19.95
2023-02-24T06:47:35.638Z,20.17
2023-02-24T06:50:05.916Z,22.95
2023-02-24T06:52:40.705Z,21.63
2023-02-24T06:55:24.734Z,20.77
2023-02-24T06:58:04.608Z,21.27
2023-02-24T07:00:42.548Z,21.63
2023-02-24T07:04:02.106Z,20.95
2023-02-24T07:07:05.525Z,20.02
2023-02-24T07:09:36.141Z,26.85
2023-02-24T07:12:07.267Z,25.38
2023-02-24T07:14:36.932Z,21.13
2023-02-24T07:17:05.222Z,21.85
2023-02-24T07:19:45.475Z,21.33
2023-02-24T07:22:24.562Z,23.50
2023-02-24T07:25:06.550Z,31.65
2023-02-24T07:27:39.362Z,25.90
2023-02-24T07:30:23.095Z,22.70
2023-02-24T07:32:50.232Z,20.25
2023-02-24T07:35:21.252Z,21.63
2023-02-24T07:38:24.887Z,20.80
2023-02-24T07:41:01.481Z,21.50
2023-02-24T07:43:31.586Z,21.42
2023-02-24T07:52:00.761Z,19.48
2023-02-24T07:54:54.553Z,23.17
2023-02-24T08:00:30.782Z,22.08
2023-02-24T08:03:00.813Z,22.45
2023-02-24T08:05:30.110Z,23.38
2023-02-24T08:07:56.784Z,25.08
2023-02-24T08:10:26.846Z,24.75
2023-02-24T08:13:26.526Z,22.13
2023-02-24T08:16:13.723Z,21.70
2023-02-24T08:19:12.614Z,21.60
2023-02-24T08:25:22.202Z,21.42
2023-02-24T08:31:15.794Z,20.20
2023-02-24T08:39:44.312Z,18.13
2023-02-24T08:42:37.610Z,18.40
2023-02-24T08:45:04.985Z,18.42
2023-02-24T08:47:38.545Z,17.77
2023-02-24T08:50:11.031Z,17.65
2023-02-24T08:52:52.406Z,19.27
2023-02-24T08:55:22.371Z,18.13
2023-02-24T08:57:55.577Z,18.10
2023-02-24T09:03:48.173Z,18.75
2023-02-24T09:06:27.394Z,19.50
2023-02-24T09:09:24.683Z,19.77
2023-02-24T09:12:01.810Z,18.95
2023-02-24T09:23:30.237Z,21.30
2023-02-24T09:26:16.059Z,18.33
2023-02-24T09:29:09.070Z,18.25
2023-02-24T09:32:01.517Z,20.23
2023-02-24T09:34:46.810Z,17.85
2023-02-24T09:41:17.071Z,19.63
2023-02-24T09:44:05.585Z,20.15
2023-02-24T09:50:13.403Z,18.60
2023-02-24T09:53:00.049Z,19.80
2023-02-24T09:56:04.881Z,17.65
2023-02-24T09:58:43.648Z,17.65
2023-02-24T10:01:23.533Z,17.25
2023-02-24T10:04:15.016Z,18.10
2023-02-24T10:06:58.372Z,17.13
2023-02-24T10:09:39.978Z,16.27
2023-02-24T10:12:28.423Z,16.67
2023-02-24T10:15:19.971Z,19.13
2023-02-24T10:18:26.593Z,17.02
2023-02-24T10:21:19.432Z,17.40
2023-02-24T10:24:18.564Z,17.63
2023-02-24T10:27:30.713Z,16.17
2023-02-24T10:33:05.670Z,15.95
2023-02-24T10:38:27.994Z,16.35
2023-02-24T10:41:12.144Z,14.68
2023-02-24T10:43:57.466Z,14.40
2023-02-24T10:49:27.859Z,13.60
2023-02-24T10:57:59.390Z,15.43
2023-02-24T11:00:21.994Z,13.15
2023-02-24T11:09:32.089Z,12.83
2023-02-24T11:20:50.144Z,14.57
2023-02-24T11:24:32.002Z,14.73
2023-02-24T11:50:55.829Z,16.08
2023-02-24T11:57:03.231Z,17.33
2023-02-24T12:02:30.380Z,15.65
2023-02-24T12:05:13.640Z,15.77
2023-02-24T12:08:31.683Z,16.42
2023-02-24T12:14:58.540Z,16.50
2023-02-24T12:17:38.366Z,15.52
2023-02-24T12:20:34.365Z,15.70
2023-02-24T12:23:27.624Z,14.77
2023-02-24T12:26:28.629Z,15.55
2023-02-24T12:29:42.275Z,15.65
2023-02-24T12:38:30.853Z,15.65
2023-02-24T12:42:01.887Z,15.80
2023-02-24T12:45:17.307Z,16.15
2023-02-24T12:48:38.047Z,14.70
2023-02-24T12:54:07.786Z,16.58
2023-02-24T12:57:40.373Z,16.23
2023-02-24T13:00:56.411Z,16.35
2023-02-24T13:07:41.075Z,14.73
2023-02-24T13:10:30.089Z,16.73
2023-02-24T13:13:37.187Z,17.05
2023-02-24T13:16:39.408Z,16.95
2023-02-24T13:19:45.714Z,15.55
2023-02-24T13:25:36.313Z,16.45
2023-02-24T13:34:34.357Z,14.35
2023-02-24T13:37:03.747Z,15.75
2023-02-24T13:39:43.599Z,15.75
2023-02-24T13:42:20.041Z,15.23
2023-02-24T13:45:07.712Z,15.10
2023-02-24T13:48:08.654Z,15.45
2023-02-24T13:51:11.401Z,16.70
2023-02-24T13:54:18.664Z,17.95
2023-02-24T13:57:05.216Z,16.80
2023-02-24T14:00:31.832Z,15.82
2023-02-24T14:06:13.143Z,16.70
2023-02-24T14:08:58.014Z,16.25
2023-02-24T14:11:34.772Z,16.77
2023-02-24T14:14:13.528Z,14.98
2023-02-24T14:16:40.734Z,16.77
2023-02-24T14:19:15.446Z,16.02
2023-02-24T14:21:57.208Z,17.33
2023-02-24T14:24:28.870Z,16.48
2023-02-24T14:27:01.006Z,17.30
2023-02-24T14:29:43.278Z,17.65
2023-02-24T14:32:26.721Z,16.10
2023-02-24T14:34:54.731Z,15.93
2023-02-24T14:37:27.505Z,14.57
2023-02-24T14:40:05.123Z,14.88
2023-02-24T14:42:31.899Z,15.43
2023-02-24T14:44:59.050Z,15.07
2023-02-24T14:47:29.051Z,14.50
2023-02-24T14:50:01.598Z,12.82
2023-02-24T14:52:34.045Z,13.20
2023-02-24T14:55:13.379Z,13.43
2023-02-24T14:58:08.771Z,14.93
2023-02-24T15:00:40.554Z,15.10
2023-02-24T15:03:38.547Z,13.63
2023-02-24T15:06:16.619Z,13.88
2023-02-24T15:08:57.603Z,12.95
2023-02-24T15:11:29.559Z,12.02
2023-02-24T15:13:59.979Z,11.73
2023-02-24T15:16:35.001Z,13.00
2023-02-24T15:19:25.618Z,11.73
2023-02-24T15:22:40.668Z,11.85
2023-02-24T15:25:33.788Z,12.10
2023-02-24T15:28:30.584Z,11.20
2023-02-24T15:31:37.997Z,11.90
2023-02-24T15:37:51.988Z,11.68
2023-02-24T15:40:28.649Z,12.13
2023-02-24T15:43:33.094Z,11.73
2023-02-24T15:46:00.176Z,11.77
2023-02-24T15:48:31.030Z,11.75
2023-02-24T15:51:05.451Z,11.82
2023-02-24T15:53:35.068Z,11.05
2023-02-24T15:56:02.976Z,11.57
2023-02-24T15:58:41.888Z,10.85
2023-02-24T16:07:36.485Z,12.68
2023-02-24T16:10:06.613Z,11.00
2023-02-24T16:22:14.765Z,10.95
2023-02-24T16:37:35.516Z,11.75
2023-02-24T16:40:19.736Z,11.23
2023-02-24T16:43:17.007Z,10.57
2023-02-24T16:49:11.693Z,13.05
2023-02-24T17:01:18.383Z,11.25
2023-02-24T17:03:51.381Z,13.73
2023-02-24T17:27:45.571Z,12.98
2023-02-24T17:30:14.197Z,11.27
2023-02-24T17:36:00.161Z,12.85
2023-02-24T17:41:21.015Z,12.73
2023-02-24T17:43:58.284Z,12.57
2023-02-24T17:52:06.353Z,14.70
2023-02-24T17:54:33.318Z,14.10
2023-02-24T17:57:12.760Z,14.93
2023-02-24T17:59:47.808Z,13.77
2023-02-24T18:02:17.284Z,13.45
2023-02-24T18:04:49.477Z,13.10
2023-02-24T18:07:16.838Z,13.40
2023-02-24T18:21:44.989Z,12.65
2023-02-24T18:24:38.561Z,12.60
2023-02-24T18:27:06.285Z,14.70
2023-02-24T18:29:33.107Z,15.65
2023-02-24T18:43:22.375Z,14.93
2023-02-24T18:48:39.386Z,15.23
2023-02-24T18:51:10.427Z,15.02
2023-02-24T18:53:38.168Z,14.73
2023-02-24T18:56:12.099Z,13.70
2023-02-24T18:58:40.996Z,13.77
2023-02-24T19:01:12.594Z,14.80
2023-02-24T19:03:41.312Z,13.13
2023-02-24T19:06:10.095Z,14.57
2023-02-24T19:08:38.161Z,14.65
2023-02-24T19:11:18.474Z,16.45
2023-02-24T19:13:49.512Z,14.55
2023-02-24T19:16:16.987Z,14.70
2023-02-24T19:18:55.227Z,13.98
2023-02-24T19:21:23.968Z,14.10
2023-02-24T19:23:50.866Z,14.40
2023-02-24T19:26:23.867Z,13.18
2023-02-24T19:28:52.033Z,13.95
2023-02-24T19:31:24.513Z,13.27
2023-02-24T19:33:58.014Z,14.40
2023-02-24T19:36:25.359Z,13.95
2023-02-24T19:38:52.957Z,13.57
2023-02-24T19:41:19.927Z,13.38
2023-02-24T19:43:46.807Z,13.80
2023-02-24T19:46:18.186Z,14.43
2023-02-24T19:48:45.467Z,15.30
2023-02-24T19:51:18.650Z,14.77
2023-02-24T19:54:18.809Z,14.55
2023-02-24T19:56:49.700Z,14.25
2023-02-24T19:59:18.861Z,13.88
2023-02-24T20:01:52.116Z,12.93
2023-02-24T20:04:21.453Z,14.27
2023-02-24T20:07:15.155Z,14.32
2023-02-24T20:09:47.674Z,14.05
2023-02-24T20:12:15.068Z,12.68
2023-02-24T20:14:42.893Z,12.93
2023-02-24T20:17:14.160Z,13.18
2023-02-24T20:19:40.882Z,13.35
2023-02-24T20:22:07.854Z,13.95
2023-02-24T20:24:37.329Z,11.70
2023-02-24T20:27:04.627Z,12.20
2023-02-24T20:29:34.422Z,11.88
2023-02-24T20:32:02.868Z,11.40
2023-02-24T20:34:29.675Z,11.13
2023-02-24T20:36:58.801Z,11.63
2023-02-24T20:39:25.549Z,11.40
2023-02-24T20:41:54.772Z,11.13
2023-02-24T20:44:21.449Z,10.65
2023-02-24T20:46:57.873Z,11.38
2023-02-24T20:49:28.981Z,10.82
2023-02-24T20:51:55.836Z,5.85
2023-02-24T20:54:30.062Z,3.17
2023-02-24T20:56:56.785Z,2.63
2023-02-24T20:59:23.688Z,2.60
2023-02-24T21:01:55.327Z,1.98
2023-02-24T21:04:24.143Z,2.45
2023-02-24T21:06:53.540Z,2.17
2023-02-24T21:09:45.431Z,2.00
2023-02-24T21:12:16.261Z,2.50
2023-02-24T21:17:38.992Z,2.15
2023-02-24T21:20:10.922Z,2.17
2023-02-24T21:22:39.791Z,2.20
2023-02-24T21:25:11.586Z,2.65
2023-02-24T21:27:42.135Z,2.05
2023-02-24T21:30:15.584Z,5.00
2023-02-24T21:32:47.138Z,5.45
2023-02-24T21:35:17.696Z,2.92
2023-02-24T21:37:44.398Z,3.50
2023-02-24T21:43:08.867Z,4.35
2023-02-24T21:45:35.659Z,3.17
2023-02-24T21:48:04.975Z,4.60
2023-02-24T21:50:32.478Z,4.55
2023-02-24T21:53:00.353Z,3.05
2023-02-24T21:58:20.930Z,4.40
2023-02-24T22:00:54.737Z,4.90
2023-02-24T22:03:25.228Z,4.22
2023-02-24T22:05:52.969Z,4.45
2023-02-24T22:08:23.010Z,3.75
2023-02-24T22:11:00.571Z,6.03
2023-02-24T22:13:55.883Z,3.50
2023-02-24T22:19:28.168Z,3.33
2023-02-24T22:21:59.184Z,3.20
2023-02-24T22:24:25.929Z,3.25
2023-02-24T22:26:52.546Z,5.22
2023-02-24T22:32:14.959Z,6.63
2023-02-24T22:34:41.827Z,4.78
2023-02-24T22:37:08.497Z,4.25
2023-02-24T22:39:42.403Z,4.85
2023-02-24T22:42:11.266Z,3.55
2023-02-24T22:44:46.882Z,3.60
2023-02-24T22:47:19.550Z,3.63
2023-02-24T22:52:46.701Z,2.90
2023-02-24T22:55:19.756Z,3.40
2023-02-24T22:57:47.619Z,2.80
2023-02-24T23:03:26.218Z,3.67
2023-02-24T23:05:58.624Z,3.88
2023-02-24T23:08:31.742Z,3.35
2023-02-24T23:11:08.500Z,3.50
2023-02-24T23:13:37.677Z,2.85
2023-02-24T23:16:18.484Z,4.20
2023-02-24T23:18:50.123Z,22.75
2023-02-24T23:21:21.641Z,39.33
2023-02-24T23:23:51.581Z,15.20
2023-02-24T23:26:19.522Z,7.45
2023-02-24T23:28:46.714Z,20.25
2023-02-24T23:31:20.264Z,27.05
2023-02-24T23:33:52.196Z,22.88
2023-02-24T23:36:18.908Z,5.75
2023-02-24T23:38:45.735Z,4.40
2023-02-24T23:41:13.477Z,4.25
2023-02-24T23:43:40.699Z,4.72
2023-02-24T23:46:43.540Z,3.63
2023-02-24T23:49:13.214Z,4.43
2023-02-24T23:51:48.465Z,3.95
2023-02-24T23:54:17.275Z,4.65
2023-02-24T23:56:44.436Z,4.38
2023-02-24T23:59:11.617Z,4.10
